createdAt,value
2022-09-14T00:01:26.146Z,11.43
2022-09-14T00:03:58.122Z,5.90
2022-09-14T00:06:26.012Z,4.87
2022-09-14T00:08:54.947Z,6.20
2022-09-14T00:11:23.914Z,5.90
2022-09-14T00:13:51.671Z,6.73
2022-09-14T00:16:24.205Z,7.67
2022-09-14T00:19:06.128Z,7.57
2022-09-14T00:21:35.435Z,6.93
2022-09-14T00:24:02.905Z,6.63
2022-09-14T00:26:29.819Z,8.77
2022-09-14T00:28:58.846Z,6.87
2022-09-14T00:31:26.512Z,6.67
2022-09-14T00:33:53.689Z,7.37
2022-09-14T00:36:23.832Z,7.53
2022-09-14T00:38:51.779Z,9.03
2022-09-14T00:41:25.069Z,8.03
2022-09-14T00:43:58.661Z,3.80
2022-09-14T00:46:46.841Z,5.60
2022-09-14T00:49:18.680Z,5.90
2022-09-14T00:52:17.753Z,3.90
2022-09-14T00:54:50.983Z,8.83
2022-09-14T00:57:19.894Z,5.87
2022-09-14T00:59:49.694Z,6.23
2022-09-14T01:02:17.046Z,10.73
2022-09-14T01:04:44.173Z,3.53
2022-09-14T01:07:23.283Z,9.40
2022-09-14T01:10:05.660Z,8.03
2022-09-14T01:12:49.930Z,6.50
2022-09-14T01:15:32.169Z,6.67
2022-09-14T01:18:08.517Z,7.97
2022-09-14T01:20:45.621Z,6.00
2022-09-14T01:23:25.067Z,7.00
2022-09-14T01:26:19.300Z,7.13
2022-09-14T01:29:32.029Z,5.70
2022-09-14T01:32:11.014Z,7.83
2022-09-14T01:34:50.150Z,5.67
2022-09-14T01:37:25.980Z,7.93
2022-09-14T01:39:58.598Z,5.67
2022-09-14T01:42:28.480Z,5.83
2022-09-14T01:45:00.415Z,8.63
2022-09-14T01:47:34.198Z,8.83
2022-09-14T01:50:34.147Z,5.20
2022-09-14T01:53:06.434Z,8.07
2022-09-14T01:55:44.390Z,7.80
2022-09-14T01:58:20.425Z,6.30
2022-09-14T02:00:50.262Z,7.53
2022-09-14T02:03:22.321Z,9.03
2022-09-14T02:05:55.280Z,6.63
2022-09-14T02:08:22.584Z,7.37
2022-09-14T02:10:49.512Z,10.40
2022-09-14T02:13:17.205Z,7.77
2022-09-14T02:15:44.191Z,11.53
2022-09-14T02:18:11.263Z,7.57
2022-09-14T02:20:51.335Z,6.17
2022-09-14T02:23:19.101Z,6.80
2022-09-14T02:25:47.648Z,7.27
2022-09-14T02:28:15.136Z,5.53
2022-09-14T02:31:06.736Z,6.83
2022-09-14T02:33:33.963Z,7.57
2022-09-14T02:36:27.137Z,6.83
2022-09-14T02:39:01.081Z,8.80
2022-09-14T02:41:57.231Z,8.13
2022-09-14T02:44:37.617Z,6.57
2022-09-14T02:47:12.338Z,7.17
2022-09-14T02:49:56.858Z,12.53
2022-09-14T02:52:37.318Z,10.90
2022-09-14T02:55:10.977Z,8.47
2022-09-14T02:58:10.153Z,10.27
2022-09-14T03:00:45.526Z,8.37
2022-09-14T03:03:15.258Z,11.17
2022-09-14T03:05:42.610Z,6.67
2022-09-14T03:08:10.690Z,14.90
2022-09-14T03:10:38.158Z,10.23
2022-09-14T03:13:05.174Z,8.83
2022-09-14T03:15:32.083Z,11.87
2022-09-14T03:17:59.423Z,10.77
2022-09-14T03:20:29.397Z,9.73
2022-09-14T03:22:58.317Z,13.03
2022-09-14T03:25:25.491Z,14.10
2022-09-14T03:27:55.798Z,9.27
2022-09-14T03:30:22.893Z,10.63
2022-09-14T03:32:50.337Z,11.23
2022-09-14T03:35:17.779Z,11.03
2022-09-14T03:37:45.721Z,13.07
2022-09-14T03:40:21.437Z,10.87
2022-09-14T03:42:50.588Z,9.77
2022-09-14T03:45:19.208Z,10.47
2022-09-14T03:47:47.049Z,10.43
2022-09-14T03:50:15.498Z,8.50
2022-09-14T03:52:42.797Z,9.20
2022-09-14T03:55:10.902Z,6.90
2022-09-14T03:57:38.219Z,11.57
2022-09-14T04:00:07.100Z,9.40
2022-09-14T04:02:34.257Z,13.60
2022-09-14T04:05:01.247Z,9.77
2022-09-14T04:07:28.296Z,10.93
2022-09-14T04:09:56.271Z,9.93
2022-09-14T04:12:23.400Z,11.40
2022-09-14T04:14:50.391Z,9.77
2022-09-14T04:17:18.180Z,10.13
2022-09-14T04:19:45.181Z,10.50
2022-09-14T04:22:12.185Z,15.07
2022-09-14T04:24:39.091Z,8.77
2022-09-14T04:27:06.198Z,12.87
2022-09-14T04:29:33.395Z,11.27
2022-09-14T04:32:00.306Z,9.33
2022-09-14T04:34:27.351Z,13.93
2022-09-14T04:36:57.580Z,11.53
2022-09-14T04:39:36.034Z,10.47
2022-09-14T04:42:02.957Z,9.53
2022-09-14T04:44:29.884Z,12.93
2022-09-14T04:46:56.858Z,14.20
2022-09-14T04:49:24.094Z,14.77
2022-09-14T04:51:51.239Z,11.13
2022-09-14T04:54:20.759Z,7.63
2022-09-14T04:56:57.127Z,8.90
2022-09-14T04:59:24.127Z,10.97
2022-09-14T05:01:51.306Z,8.73
2022-09-14T05:04:18.444Z,12.67
2022-09-14T05:06:46.053Z,9.83
2022-09-14T05:09:18.279Z,15.13
2022-09-14T05:11:46.185Z,12.50
2022-09-14T05:14:14.156Z,13.80
2022-09-14T06:24:26.780Z,11.80
2022-09-14T06:26:53.604Z,5.80
2022-09-14T06:29:20.686Z,7.40
2022-09-14T06:31:47.555Z,7.97
2022-09-14T06:34:14.380Z,13.33
2022-09-14T06:36:41.270Z,10.33
2022-09-14T06:39:08.703Z,14.33
2022-09-14T06:41:35.632Z,10.43
2022-09-14T06:44:03.312Z,10.23
2022-09-14T06:46:33.258Z,9.10
2022-09-14T06:49:10.194Z,7.77
2022-09-14T06:51:44.871Z,13.53
2022-09-14T06:54:13.606Z,10.47
2022-09-14T06:56:41.983Z,13.70
2022-09-14T06:59:17.860Z,9.70
2022-09-14T07:01:45.900Z,9.40
2022-09-14T07:04:14.473Z,10.47
2022-09-14T07:06:44.060Z,10.97
2022-09-14T07:09:11.709Z,13.63
2022-09-14T07:11:39.199Z,9.90
2022-09-14T07:14:06.642Z,10.33
2022-09-14T07:16:34.748Z,11.07
2022-09-14T07:19:04.631Z,12.27
2022-09-14T07:21:52.579Z,11.47
2022-09-14T07:24:19.479Z,10.97
2022-09-14T07:26:46.440Z,9.60
2022-09-14T07:29:18.559Z,14.67
2022-09-14T07:31:49.475Z,9.10
2022-09-14T07:34:18.702Z,11.03
2022-09-14T07:36:46.019Z,9.10
2022-09-14T07:39:15.577Z,11.97
2022-09-14T07:41:43.497Z,12.00
2022-09-14T07:44:14.670Z,10.03
2022-09-14T07:46:43.935Z,11.43
2022-09-14T07:49:12.103Z,9.87
2022-09-14T07:51:40.323Z,8.90
2022-09-14T07:54:08.932Z,8.63
2022-09-14T07:56:35.894Z,9.97
2022-09-14T07:59:31.365Z,11.47
2022-09-14T08:01:52.127Z,9.90
2022-09-14T08:04:19.269Z,11.20
2022-09-14T08:06:46.237Z,7.30
2022-09-14T08:09:13.337Z,9.13
2022-09-14T08:11:40.410Z,9.63
2022-09-14T08:14:11.915Z,8.90
2022-09-14T08:16:40.842Z,6.97
2022-09-14T08:19:14.276Z,9.20
2022-09-14T08:21:46.181Z,9.80
2022-09-14T08:24:15.996Z,5.67
2022-09-14T08:29:09.872Z,10.67
2022-09-14T08:31:39.076Z,11.63
2022-09-14T08:34:07.179Z,8.07
2022-09-14T08:36:39.513Z,8.33
2022-09-14T08:39:09.569Z,8.40
2022-09-14T08:41:45.005Z,11.33
2022-09-14T08:44:11.946Z,13.47
2022-09-14T08:46:56.450Z,7.03
2022-09-14T08:49:41.877Z,8.37
2022-09-14T08:52:31.921Z,9.90
2022-09-14T08:55:17.367Z,5.90
2022-09-14T08:58:01.019Z,12.73
2022-09-14T09:00:39.893Z,9.80
2022-09-14T09:03:59.486Z,12.40
2022-09-14T09:06:54.129Z,11.97
2022-09-14T09:09:33.538Z,11.60
2022-09-14T09:12:01.337Z,10.03
2022-09-14T09:14:36.096Z,11.03
2022-09-14T09:17:32.174Z,8.10
2022-09-14T09:20:06.956Z,7.03
2022-09-14T09:22:41.933Z,9.50
2022-09-14T09:25:55.742Z,10.17
2022-09-14T09:28:24.896Z,8.20
2022-09-14T09:30:57.941Z,8.93
2022-09-14T09:33:28.019Z,11.70
2022-09-14T09:35:55.679Z,10.27
2022-09-14T09:38:25.882Z,10.97
2022-09-14T09:41:05.361Z,10.57
2022-09-14T09:43:49.305Z,5.93
2022-09-14T09:46:21.136Z,10.40
2022-09-14T09:48:51.516Z,7.23
2022-09-14T09:51:33.510Z,7.93
2022-09-14T09:54:08.087Z,8.20
2022-09-14T09:56:38.610Z,7.67
2022-09-14T09:59:38.337Z,7.17
2022-09-14T10:02:27.730Z,10.13
2022-09-14T10:05:00.411Z,13.67
2022-09-14T10:07:29.500Z,8.17
2022-09-14T10:10:09.084Z,5.93
2022-09-14T10:12:39.789Z,7.93
2022-09-14T10:15:22.546Z,8.53
2022-09-14T10:18:14.702Z,7.87
2022-09-14T10:20:52.969Z,7.47
2022-09-14T10:23:19.871Z,9.93
2022-09-14T10:25:49.166Z,6.07
2022-09-14T10:28:31.100Z,8.37
2022-09-14T10:31:19.426Z,6.57
2022-09-14T10:33:53.814Z,8.67
2022-09-14T10:36:32.255Z,9.80
2022-09-14T10:39:35.951Z,10.53
2022-09-14T10:42:15.495Z,7.80
2022-09-14T10:45:14.678Z,6.80
2022-09-14T10:47:53.748Z,6.13
2022-09-14T10:50:50.104Z,7.37
2022-09-14T10:53:32.241Z,10.50
2022-09-14T10:56:10.459Z,9.50
2022-09-14T10:58:47.668Z,5.77
2022-09-14T11:01:20.560Z,6.70
2022-09-14T11:04:17.787Z,7.00
2022-09-14T11:07:02.378Z,8.33
2022-09-14T11:09:50.009Z,7.73
2022-09-14T11:12:58.947Z,4.90
2022-09-14T11:15:31.840Z,8.23
2022-09-14T11:18:10.793Z,9.73
2022-09-14T11:20:58.781Z,6.07
2022-09-14T11:23:52.867Z,3.93
2022-09-14T11:26:41.552Z,7.80
2022-09-14T11:29:27.495Z,7.50
2022-09-14T11:32:32.075Z,7.13
2022-09-14T11:35:18.185Z,6.00
2022-09-14T11:38:06.698Z,5.87
2022-09-14T11:40:46.061Z,6.23
2022-09-14T11:43:24.862Z,4.57
2022-09-14T11:46:12.797Z,7.37
2022-09-14T11:48:44.106Z,7.57
2022-09-14T11:51:22.587Z,6.97
2022-09-14T11:53:50.942Z,6.63
2022-09-14T11:56:34.349Z,5.60
2022-09-14T11:59:07.705Z,5.20
2022-09-14T12:01:37.149Z,8.73
2022-09-14T12:04:06.669Z,4.33
2022-09-14T12:06:36.856Z,5.57
2022-09-14T12:09:22.927Z,7.33
2022-09-14T12:11:56.715Z,5.97
2022-09-14T12:14:27.575Z,10.97
2022-09-14T12:17:40.529Z,5.63
2022-09-14T12:20:44.372Z,9.00
2022-09-14T12:23:29.181Z,5.87
2022-09-14T12:26:28.223Z,4.03
2022-09-14T12:28:59.190Z,7.30
2022-09-14T12:31:54.221Z,5.50
2022-09-14T12:34:27.697Z,5.23
2022-09-14T12:36:56.891Z,6.80
2022-09-14T12:39:26.710Z,3.00
2022-09-14T12:41:53.525Z,5.17
2022-09-14T12:44:36.530Z,7.20
2022-09-14T12:47:25.374Z,5.77
2022-09-14T12:50:01.035Z,5.30
2022-09-14T12:52:33.564Z,4.23
2022-09-14T12:55:22.231Z,4.17
2022-09-14T12:58:02.834Z,6.40
2022-09-14T13:00:46.349Z,7.70
2022-09-14T13:03:38.193Z,6.43
2022-09-14T13:06:10.761Z,6.20
2022-09-14T13:08:38.142Z,3.77
2022-09-14T13:11:06.926Z,6.20
2022-09-14T13:13:34.173Z,5.80
2022-09-14T13:16:04.865Z,4.33
2022-09-14T13:18:40.684Z,4.23
2022-09-14T13:21:22.775Z,11.30
2022-09-14T13:23:49.958Z,6.23
2022-09-14T13:26:27.936Z,5.97
2022-09-14T13:28:56.161Z,5.20
2022-09-14T13:31:29.216Z,4.40
2022-09-14T13:33:57.439Z,8.63
2022-09-14T13:36:29.464Z,6.57
2022-09-14T13:39:01.692Z,5.33
2022-09-14T13:41:30.945Z,4.30
2022-09-14T13:43:59.148Z,3.13
2022-09-14T13:46:27.688Z,8.97
2022-09-14T13:48:55.748Z,4.87
2022-09-14T13:51:27.946Z,3.53
2022-09-14T13:54:15.777Z,4.23
2022-09-14T13:56:42.949Z,6.17
2022-09-14T13:59:15.629Z,5.40
2022-09-14T14:01:49.843Z,8.27
2022-09-14T14:04:33.705Z,5.63
2022-09-14T14:07:08.535Z,4.87
2022-09-14T14:09:44.894Z,4.50
2022-09-14T14:12:21.734Z,6.97
2022-09-14T14:15:04.681Z,7.43
2022-09-14T14:17:37.495Z,5.90
2022-09-14T14:20:24.680Z,5.17
2022-09-14T14:23:06.457Z,6.87
2022-09-14T14:25:43.451Z,5.43
2022-09-14T14:28:27.454Z,3.73
2022-09-14T14:30:57.013Z,5.80
2022-09-14T14:33:24.298Z,4.73
2022-09-14T14:35:54.012Z,8.37
2022-09-14T14:38:23.782Z,3.77
2022-09-14T14:40:52.484Z,9.00
2022-09-14T14:43:24.639Z,4.27
2022-09-14T14:45:57.604Z,4.93
2022-09-14T14:48:26.322Z,4.40
2022-09-14T14:50:55.660Z,7.73
2022-09-14T14:53:23.907Z,5.73
2022-09-14T14:55:51.366Z,6.23
2022-09-14T14:58:20.361Z,3.93
2022-09-14T15:00:48.216Z,6.30
2022-09-14T15:03:21.525Z,6.50
2022-09-14T15:05:49.511Z,8.63
2022-09-14T15:08:20.223Z,3.40
2022-09-14T15:10:47.572Z,6.60
2022-09-14T15:13:14.718Z,6.27
2022-09-14T15:15:43.147Z,4.87
2022-09-14T15:18:10.177Z,8.17
2022-09-14T15:20:37.701Z,9.20
2022-09-14T15:23:04.736Z,16.93
2022-09-14T15:25:32.179Z,4.87
2022-09-14T15:27:59.325Z,5.67
2022-09-14T15:30:26.598Z,4.83
2022-09-14T15:32:53.605Z,6.33
2022-09-14T15:35:20.845Z,4.13
2022-09-14T15:37:48.661Z,5.73
2022-09-14T15:40:15.884Z,5.97
2022-09-14T15:42:42.971Z,10.00
2022-09-14T15:45:10.153Z,8.60
2022-09-14T15:47:37.258Z,8.63
2022-09-14T15:50:06.079Z,8.17
2022-09-14T15:52:38.344Z,7.20
2022-09-14T15:55:07.478Z,4.80
2022-09-14T15:57:34.876Z,9.60
2022-09-14T16:00:04.779Z,7.30
2022-09-14T16:02:31.861Z,11.00
2022-09-14T16:04:58.883Z,5.67
2022-09-14T16:07:25.987Z,15.07
2022-09-14T16:09:55.158Z,7.43
2022-09-14T16:12:25.237Z,4.27
2022-09-14T16:14:52.095Z,8.53
2022-09-14T16:17:19.156Z,4.60
2022-09-14T16:19:49.398Z,9.67
2022-09-14T16:22:16.637Z,4.50
2022-09-14T16:24:43.565Z,11.63
2022-09-14T16:27:10.573Z,6.40
2022-09-14T16:29:39.451Z,8.50
2022-09-14T16:32:06.697Z,2.90
2022-09-14T16:34:33.647Z,8.47
2022-09-14T16:37:00.704Z,7.90
2022-09-14T16:39:34.919Z,4.43
2022-09-14T16:42:02.209Z,4.43
2022-09-14T16:44:29.585Z,4.70
2022-09-14T16:46:58.445Z,6.17
2022-09-14T16:49:28.265Z,3.63
2022-09-14T16:51:56.632Z,11.53
2022-09-14T16:54:25.544Z,8.10
2022-09-14T16:56:57.146Z,5.77
2022-09-14T16:59:25.194Z,4.90
2022-09-14T17:01:54.669Z,5.30
2022-09-14T17:04:22.666Z,5.80
2022-09-14T17:06:51.846Z,4.90
2022-09-14T17:09:28.682Z,4.03
2022-09-14T17:11:57.140Z,3.80
2022-09-14T17:14:30.265Z,5.17
2022-09-14T17:16:58.017Z,5.77
2022-09-14T17:19:25.844Z,8.47
2022-09-14T17:21:53.292Z,7.17
2022-09-14T17:24:21.062Z,5.77
2022-09-14T17:26:48.137Z,4.27
2022-09-14T17:29:15.443Z,8.93
2022-09-14T17:31:44.245Z,6.37
2022-09-14T17:34:13.844Z,5.00
2022-09-14T17:36:40.877Z,4.53
2022-09-14T17:39:12.084Z,8.53
2022-09-14T17:41:40.387Z,9.33
2022-09-14T17:44:09.619Z,9.43
2022-09-14T17:46:41.487Z,5.40
2022-09-14T17:49:14.663Z,4.87
2022-09-14T17:51:41.697Z,6.17
2022-09-14T17:54:09.306Z,5.23
2022-09-14T17:56:37.115Z,7.97
2022-09-14T17:59:07.477Z,9.93
2022-09-14T18:01:34.807Z,4.20
2022-09-14T18:04:07.536Z,5.17
2022-09-14T18:06:38.491Z,5.33
2022-09-14T18:09:09.247Z,7.67
2022-09-14T18:11:36.578Z,9.70
2022-09-14T18:14:04.862Z,7.77
2022-09-14T18:16:32.444Z,6.20
2022-09-14T18:18:59.643Z,6.20
2022-09-14T18:21:26.816Z,6.77
2022-09-14T18:23:54.800Z,5.43
2022-09-14T18:26:22.766Z,10.53
2022-09-14T18:28:51.212Z,6.30
2022-09-14T18:31:19.865Z,7.53
2022-09-14T18:33:49.075Z,5.53
2022-09-14T18:36:16.705Z,6.00
2022-09-14T18:38:44.344Z,7.57
2022-09-14T18:41:13.452Z,7.57
2022-09-14T18:43:47.084Z,11.10
2022-09-14T18:46:15.096Z,9.07
2022-09-14T18:48:46.280Z,11.00
2022-09-14T18:51:14.627Z,10.30
2022-09-14T18:53:42.560Z,12.83
2022-09-14T18:56:13.338Z,8.87
2022-09-14T18:58:43.480Z,8.30
2022-09-14T19:01:12.186Z,8.00
2022-09-14T19:03:40.730Z,8.20
2022-09-14T19:06:13.929Z,7.90
2022-09-14T19:08:41.533Z,8.60
2022-09-14T19:11:13.982Z,8.20
2022-09-14T19:13:41.128Z,7.27
2022-09-14T19:16:10.237Z,8.53
2022-09-14T19:18:37.787Z,12.50
2022-09-14T19:21:09.933Z,7.90
2022-09-14T19:23:37.830Z,10.27
2022-09-14T19:26:07.276Z,10.77
2022-09-14T19:28:35.264Z,8.30
2022-09-14T19:31:08.365Z,9.90
2022-09-14T19:33:36.451Z,13.70
2022-09-14T19:36:11.774Z,7.97
2022-09-14T19:38:39.111Z,7.97
2022-09-14T19:41:06.877Z,10.43
2022-09-14T19:43:34.754Z,7.60
2022-09-14T19:46:14.451Z,12.00
2022-09-14T19:48:42.241Z,10.83
2022-09-14T19:51:12.809Z,10.67
2022-09-14T19:53:39.721Z,15.07
2022-09-14T19:56:11.017Z,12.37
2022-09-14T19:58:40.253Z,10.33
2022-09-14T20:01:07.919Z,13.13
2022-09-14T20:03:36.935Z,12.17
2022-09-14T20:06:07.589Z,16.83
2022-09-14T20:08:35.806Z,14.53
2022-09-14T20:11:11.266Z,12.70
2022-09-14T20:13:39.080Z,14.97
2022-09-14T20:16:17.905Z,15.00
2022-09-14T20:18:46.359Z,15.30
2022-09-14T20:21:16.237Z,16.10
2022-09-14T20:23:58.258Z,12.93
2022-09-14T20:26:31.630Z,14.43
2022-09-14T20:29:03.183Z,15.00
2022-09-14T20:31:31.221Z,19.20
2022-09-14T20:33:58.937Z,16.07
2022-09-14T20:36:26.899Z,16.60
2022-09-14T20:38:55.640Z,17.10
2022-09-14T20:41:28.831Z,15.10
2022-09-14T20:43:56.395Z,17.30
2022-09-14T20:46:28.520Z,14.70
2022-09-14T20:48:55.697Z,17.20
2022-09-14T20:51:24.046Z,18.10
2022-09-14T20:53:52.114Z,16.10
2022-09-14T20:56:23.835Z,18.80
2022-09-14T20:58:54.598Z,16.23
2022-09-14T21:01:25.916Z,17.83
2022-09-14T21:03:53.617Z,18.10
2022-09-14T21:06:26.908Z,17.10
2022-09-14T21:08:53.974Z,17.07
2022-09-14T21:11:26.528Z,17.00
2022-09-14T21:13:54.932Z,17.77
2022-09-14T21:16:25.591Z,18.57
2022-09-14T21:19:00.326Z,19.00
2022-09-14T21:21:28.046Z,20.63
2022-09-14T21:23:56.628Z,19.83
2022-09-14T21:26:25.400Z,18.07
2022-09-14T21:28:59.989Z,17.57
2022-09-14T21:31:31.218Z,17.33
2022-09-14T21:34:01.721Z,20.53
2022-09-14T21:36:32.044Z,18.20
2022-09-14T21:39:00.946Z,17.90
2022-09-14T21:41:30.691Z,17.63
2022-09-14T21:43:58.212Z,17.37
2022-09-14T21:46:26.630Z,19.83
2022-09-14T21:48:55.186Z,19.33
2022-09-14T21:51:24.452Z,22.27
2022-09-14T21:53:54.205Z,22.80
2022-09-14T21:56:24.218Z,16.97
2022-09-14T21:58:59.314Z,19.27
2022-09-14T22:01:27.580Z,22.50
2022-09-14T22:03:57.186Z,19.87
2022-09-14T22:06:27.396Z,22.07
2022-09-14T22:08:55.333Z,20.90
2022-09-14T22:11:31.585Z,20.73
2022-09-14T22:14:08.212Z,18.13
2022-09-14T22:16:37.166Z,18.77
2022-09-14T22:19:06.849Z,20.03
2022-09-14T22:21:36.147Z,18.30
2022-09-14T22:24:05.687Z,16.67
2022-09-14T22:26:34.297Z,19.07
2022-09-14T22:29:01.644Z,16.33
2022-09-14T22:31:29.661Z,18.77
2022-09-14T22:33:57.923Z,18.80
2022-09-14T22:36:25.870Z,17.33
2022-09-14T22:38:56.849Z,16.30
2022-09-14T22:41:26.170Z,19.53
2022-09-14T22:43:53.911Z,18.77
2022-09-14T22:46:21.915Z,15.80
2022-09-14T22:48:50.553Z,13.37
2022-09-14T22:51:23.757Z,14.80
2022-09-14T22:53:51.531Z,16.33
2022-09-14T22:56:33.974Z,18.33
2022-09-14T22:59:02.325Z,16.37
2022-09-14T23:01:33.231Z,14.47
2022-09-14T23:04:06.357Z,15.60
2022-09-14T23:06:39.127Z,18.27
2022-09-14T23:09:08.518Z,14.20
2022-09-14T23:11:37.480Z,16.70
2022-09-14T23:14:04.728Z,14.87
2022-09-14T23:16:31.987Z,16.77
2022-09-14T23:19:01.133Z,15.67
2022-09-14T23:21:29.717Z,17.47
2022-09-14T23:24:02.907Z,18.37
2022-09-14T23:26:31.011Z,17.40
2022-09-14T23:29:03.988Z,16.73
2022-09-14T23:31:32.350Z,18.63
2022-09-14T23:34:01.377Z,18.73
2022-09-14T23:36:28.779Z,19.47
2022-09-14T23:38:56.220Z,18.17
2022-09-14T23:41:24.612Z,21.23
2022-09-14T23:43:52.075Z,19.27
2022-09-14T23:46:19.778Z,17.93
2022-09-14T23:48:46.933Z,15.53
2022-09-14T23:51:14.360Z,16.87
2022-09-14T23:53:42.763Z,17.63
2022-09-14T23:56:10.359Z,18.20
2022-09-14T23:58:37.394Z,15.43
